Biscayne National Park, FL

7:44 PM EDT on October 25, 2014 (GMT -0400)
Dade County-Homestead Regional | Change Station
CLOSE
Current Station
Airport
Location: Homestead AFB,
Elevation: 7 ft
Nearby Weather Stations

Elev 7 ft 25.49 °N, 80.38 °W | Updated 46 minutes ago

Partly Cloudy
Partly Cloudy
76 °F
Feels Like 76 °F
N
10
Wind Variable Wind from NE

Today
High -- | Low -- °F
--% Chance of Precip.
Yesterday
High -- | Low -- °F
Precip. -- in
7:25 AM 6:45 PM
Waxing Crescent, 5% visible
Pressure 29.91 in
Visibility 10.0 miles
Clouds Few 5500 ft
Dew Point 64 °F
Humidity 66%
Rainfall 0.00 in
Snow Depth Not available.
UV 0 out of 12
Pollen 3.00 out of 12
Ozone Good
PM2.5 Good
Flu Activity Local Activity
METAR KHST 252258Z AUTO 04009KT 10SM FEW055 24/18 A2990 RMK AO2 SLP128 T02430177

More Conditions Fewer Conditions

Pressure 29.91 in
Visibility 10.0 miles
Clouds Few 5500 ft
Dew Point 64 °F
Humidity 66%
Rainfall 0.00 in
Snow Depth Not available.
UV 0 out of 12
Pollen 3.00 out of 12
Ozone Good
PM2.5 Good
Flu Activity Local Activity
METAR KHST 252258Z AUTO 04009KT 10SM FEW055 24/18 A2990 RMK AO2 SLP128 T02430177

More Conditions Fewer Conditions

10-Day Weather Forecast

Almanac

Astronomy

Oct. 25, 2014 Rise Set
Actual Time 7:25 AM EDT 6:45 PM EDT
Civil Twilight 7:02 AM EDT 7:09 PM EDT
Nautical Twilight 6:35 AM EDT 7:35 PM EDT
Astronomical Twilight 6:08 AM EDT 8:02 PM EDT
Moon 8:55 AM EDT 8:15 PM EDT
Length of Visible Light 12h 06m
Length of Day
11h 20m
Tomorrow will be 1m 21s shorter.
Waxing Crescent, 5% of the Moon is Illuminated
Today
Waxing Crescent
Oct 30
First Quarter
Nov 6
Full
Nov 14
Last Quarter
Nov 22
New

Today's Extremes

State Highs State Lows

Community

WunderPhotos

Upload Photos

1,765,034 photos uploaded!

Nearby

Air Quality

  Air Quality AQ Index Pollutant
Yesterday Good
OZONE
Yesterday Good
PM2.5
Current Good
PM2.5
Current Good
OZONE
Saturday Good
OZONE
Saturday Good
PM2.5
Sunday Good
OZONE
Sunday Good
PM2.5
Monday Good
OZONE
Monday Good
PM2.5

Snow Depth

Station Depth Elevation
No new snow has been reported.

Earthquake Activity

City Distance Mag. Time & Date
No recent earthquake activity has been reported nearby.
Minimum magnitude displayed is 2.5.

Coastal Water Temperatures

Place Temperature
Virginia Key, FL 79.0 °F

Nearby Weather Stations